Time;durP1;ratioP1;P1;durP2;ratioP2;P2;SDS_P1;SDS_P2;PMS_P1;PMS_P2;Temp;Humidity;BMP_temperature;BMP_pressure;BME280_temperature;BME280_humidity;BME280_pressure;Samples;Min_cycle;Max_cycle;Signal;HPM_P1;HPM_P2
2023/08/14 00:02:10;;;;;;;2.10;1.00;;;;;;;19.64;100.00;96596.44;4972416;28;102077;-71
2023/08/14 00:04:37;;;;;;;1.20;0.83;;;;;;;19.69;100.00;96587.44;4972631;28;105503;-75
2023/08/14 00:07:04;;;;;;;0.80;0.80;;;;;;;19.79;100.00;96584.50;4971764;28;105609;-75
2023/08/14 00:09:31;;;;;;;1.27;1.00;;;;;;;19.83;100.00;96590.91;4972481;28;102031;-74
2023/08/14 00:12:01;;;;;;;1.67;0.83;;;;;;;19.55;100.00;96582.06;4972402;28;104959;-77
2023/08/14 00:14:27;;;;;;;1.53;1.20;;;;;;;19.56;100.00;96572.06;4971828;28;105524;-77
2023/08/14 00:16:54;;;;;;;6.37;1.10;;;;;;;19.55;100.00;96557.78;4972183;28;102216;-77
2023/08/14 00:19:21;;;;;;;1.07;0.80;;;;;;;19.53;100.00;96546.50;4975119;28;105693;-78
2023/08/14 00:21:48;;;;;;;1.47;1.00;;;;;;;19.46;100.00;96515.63;4972292;28;102208;-78
2023/08/14 00:24:15;;;;;;;2.47;1.30;;;;;;;19.35;100.00;96493.47;4972220;28;105392;-78
2023/08/14 00:26:42;;;;;;;1.73;1.00;;;;;;;19.35;100.00;96476.50;4970438;28;105452;-77
2023/08/14 00:29:11;;;;;;;3.53;1.10;;;;;;;19.35;100.00;96477.28;4972144;28;101926;-75
2023/08/14 00:31:37;;;;;;;0.70;0.70;;;;;;;19.34;100.00;96480.31;4972086;28;105557;-74
2023/08/14 00:34:04;;;;;;;1.00;0.80;;;;;;;19.37;100.00;96474.28;4971512;28;105477;-74
2023/08/14 00:36:31;;;;;;;1.23;0.90;;;;;;;19.42;100.00;96482.28;4972222;28;102308;-74
2023/08/14 00:38:58;;;;;;;0.97;0.67;;;;;;;19.40;100.00;96484.47;4971932;28;105174;-74
2023/08/14 00:41:25;;;;;;;1.33;0.80;;;;;;;19.40;100.00;96471.00;4974571;28;105749;-73
2023/08/14 00:43:52;;;;;;;2.20;0.70;;;;;;;19.43;100.00;96446.09;4972144;28;105363;-73
2023/08/14 00:46:21;;;;;;;0.80;0.80;;;;;;;19.41;100.00;96442.94;4971410;28;105507;-73
2023/08/14 00:48:48;;;;;;;0.70;0.60;;;;;;;19.52;100.00;96463.16;4971873;28;101936;-73
2023/08/14 00:51:16;;;;;;;1.73;0.60;;;;;;;19.61;100.00;96466.75;4988498;28;105190;-73
2023/08/14 00:53:43;;;;;;;0.67;0.50;;;;;;;19.71;100.00;96463.78;4971259;28;104048;-73
2023/08/14 00:56:10;;;;;;;0.70;0.70;;;;;;;19.72;100.00;96468.09;4988365;28;102080;-73
2023/08/14 00:58:37;;;;;;;1.13;0.87;;;;;;;19.77;100.00;96467.97;4972030;28;105694;-73
2023/08/14 01:01:04;;;;;;;1.47;0.60;;;;;;;19.73;100.00;96459.69;4974696;28;105585;-72
2023/08/14 01:03:35;;;;;;;0.77;0.70;;;;;;;19.79;100.00;96457.66;4988293;28;105198;-72
2023/08/14 01:06:02;;;;;;;0.77;0.77;;;;;;;19.74;100.00;96455.91;4971174;28;105607;-72
2023/08/14 01:08:30;;;;;;;1.20;0.60;;;;;;;19.71;100.00;96448.41;4971762;28;101938;-72
2023/08/14 01:11:05;;;;;;;0.70;0.70;;;;;;;19.60;100.00;96454.34;4971655;28;105426;-72
2023/08/14 01:13:41;;;;;;;0.53;0.53;;;;;;;19.51;100.00;96454.25;4971102;28;105221;-74
2023/08/14 01:16:13;;;;;;;0.70;0.63;;;;;;;19.47;100.00;96439.00;4971686;28;101922;-73
2023/08/14 01:18:44;;;;;;;0.63;0.60;;;;;;;19.48;100.00;96449.50;4971548;28;104288;-73
2023/08/14 01:21:28;;;;;;;0.93;0.60;;;;;;;19.53;100.00;96435.91;4987569;28;105322;-73
2023/08/14 01:24:07;;;;;;;0.60;0.60;;;;;;;19.49;100.00;96428.69;4974863;28;102283;-73
2023/08/14 01:26:36;;;;;;;1.30;0.70;;;;;;;19.40;100.00;96441.34;4970512;28;105724;-72
2023/08/14 01:29:04;;;;;;;1.53;0.70;;;;;;;19.29;100.00;96434.56;4971475;28;102078;-73
2023/08/14 01:31:32;;;;;;;0.80;0.80;;;;;;;19.32;100.00;96442.03;4971611;28;104188;-73
2023/08/14 01:33:58;;;;;;;0.97;0.70;;;;;;;19.33;100.00;96430.16;4971023;28;105906;-72
2023/08/14 01:36:34;;;;;;;0.80;0.70;;;;;;;19.29;100.00;96434.56;4971640;28;101997;-73
2023/08/14 01:39:07;;;;;;;0.60;0.60;;;;;;;19.23;100.00;96431.19;4974055;28;105305;-73
2023/08/14 01:41:42;;;;;;;1.50;0.70;;;;;;;19.29;100.00;96423.78;4974103;28;105733;-73
2023/08/14 01:44:15;;;;;;;0.60;0.60;;;;;;;19.26;100.00;96419.00;4974659;28;101971;-73
2023/08/14 01:46:43;;;;;;;0.70;0.70;;;;;;;19.21;100.00;96421.75;4994198;28;105528;-73
2023/08/14 01:49:12;;;;;;;1.80;0.80;;;;;;;19.25;100.00;96417.41;4992391;28;101852;-73
2023/08/14 01:51:41;;;;;;;0.80;0.80;;;;;;;19.19;100.00;96413.19;4974515;28;105746;-74
2023/08/14 01:54:08;;;;;;;1.10;1.00;;;;;;;19.19;100.00;96413.19;4973915;28;105844;-74
2023/08/14 01:56:35;;;;;;;2.00;1.20;;;;;;;19.23;100.00;96409.59;4974700;28;102042;-74
2023/08/14 01:59:03;;;;;;;1.43;1.33;;;;;;;19.38;100.00;96411.16;4974399;28;105405;-74
2023/08/14 02:01:30;;;;;;;2.30;1.53;;;;;;;19.54;100.00;96413.22;4991777;28;103058;-75
2023/08/14 02:03:58;;;;;;;3.43;1.40;;;;;;;19.37;100.00;96409.56;4974301;28;101938;-75
2023/08/14 02:06:27;;;;;;;1.73;1.10;;;;;;;19.43;100.00;96403.75;4991208;28;104316;-75
2023/08/14 02:08:54;;;;;;;1.93;1.00;;;;;;;19.24;100.00;96405.03;4976975;28;105075;-74
2023/08/14 02:11:21;;;;;;;1.50;1.40;;;;;;;19.39;100.00;96408.16;4974275;28;105074;-75
2023/08/14 02:13:48;;;;;;;1.50;1.40;;;;;;;19.35;100.00;96403.69;4990324;28;104447;-75
2023/08/14 02:16:16;;;;;;;2.50;1.60;;;;;;;19.48;100.00;96409.03;4992276;28;102356;-75
2023/08/14 02:18:43;;;;;;;2.03;1.80;;;;;;;19.45;100.00;96415.03;4974223;28;105149;-75
2023/08/14 02:21:10;;;;;;;2.30;1.50;;;;;;;19.42;100.00;96412.97;4973466;28;105981;-75
2023/08/14 02:23:37;;;;;;;3.40;1.27;;;;;;;19.23;100.00;96411.53;4973959;28;102006;-74
2023/08/14 02:26:04;;;;;;;1.47;1.10;;;;;;;19.18;100.00;96404.28;4973657;28;104998;-80
2023/08/14 02:28:31;;;;;;;2.00;1.90;;;;;;;19.30;100.00;96404.59;4973738;28;105850;-78
2023/08/14 02:30:58;;;;;;;2.43;1.40;;;;;;;19.19;100.00;96402.41;4977369;28;102002;-77
2023/08/14 02:33:26;;;;;;;2.20;1.60;;;;;;;19.25;100.00;96404.72;4991228;28;102830;-76
2023/08/14 02:35:53;;;;;;;2.67;1.20;;;;;;;19.17;100.00;96404.59;4974042;28;101966;-76
2023/08/14 02:38:20;;;;;;;1.40;1.30;;;;;;;19.08;100.00;96395.66;4973679;28;106006;-76
2023/08/14 02:40:47;;;;;;;3.67;1.53;;;;;;;19.32;100.00;96396.19;4973260;28;105437;-76
2023/08/14 02:43:14;;;;;;;1.43;1.33;;;;;;;19.23;100.00;96398.81;4973833;28;102137;-76
2023/08/14 02:45:41;;;;;;;1.90;1.80;;;;;;;19.41;100.00;96408.63;4973767;28;104180;-76
2023/08/14 02:48:08;;;;;;;2.40;1.10;;;;;;;18.88;100.00;96413.06;4973035;28;105475;-75
2023/08/14 02:50:37;;;;;;;1.50;1.40;;;;;;;19.09;100.00;96408.03;4972885;28;102133;-75
2023/08/14 02:53:04;;;;;;;3.00;1.50;;;;;;;19.23;100.00;96409.59;4976322;28;104116;-76
2023/08/14 02:55:31;;;;;;;4.10;2.40;;;;;;;19.41;100.00;96418.66;4973647;28;101969;-76
2023/08/14 02:57:58;;;;;;;2.67;1.50;;;;;;;19.18;100.00;96407.00;4973508;28;105816;-76
2023/08/14 03:00:25;;;;;;;2.43;1.70;;;;;;;19.31;100.00;96413.47;4972865;28;105284;-76
2023/08/14 03:02:52;;;;;;;2.23;1.63;;;;;;;19.40;100.00;96419.75;4973517;28;102053;-75
2023/08/14 03:05:19;;;;;;;2.13;1.93;;;;;;;19.31;100.00;96413.47;4973334;28;105745;-74
2023/08/14 03:07:47;;;;;;;1.83;1.53;;;;;;;19.10;100.00;96407.72;4989321;28;105683;-75
2023/08/14 03:10:14;;;;;;;1.90;1.80;;;;;;;19.17;100.00;96413.50;4973476;28;102245;-75
2023/08/14 03:12:41;;;;;;;2.30;2.10;;;;;;;19.29;100.00;96421.09;4976003;28;105781;-75
2023/08/14 03:15:09;;;;;;;1.93;1.80;;;;;;;19.22;100.00;96424.19;4973168;28;102032;-75
2023/08/14 03:17:36;;;;;;;3.00;1.60;;;;;;;19.06;100.00;96417.50;4972980;28;105055;-75
2023/08/14 03:20:04;;;;;;;3.10;2.20;;;;;;;19.33;100.00;96422.06;4972569;28;105128;-75
2023/08/14 03:22:31;;;;;;;2.03;1.90;;;;;;;19.20;100.00;96422.88;4990988;28;101845;-75
2023/08/14 03:24:59;;;;;;;3.03;1.83;;;;;;;19.33;100.00;96427.44;4973291;28;105486;-76
2023/08/14 03:27:27;;;;;;;3.63;2.40;;;;;;;19.38;100.00;96430.03;4972222;28;105671;-75
2023/08/14 03:29:54;;;;;;;1.83;1.40;;;;;;;19.04;100.00;96429.69;4973232;28;101854;-76
2023/08/14 03:32:21;;;;;;;2.17;1.33;;;;;;;19.05;100.00;96432.09;4973002;28;105503;-76
2023/08/14 03:34:51;;;;;;;2.13;1.50;;;;;;;18.83;100.00;96432.03;4992274;28;105654;-76
2023/08/14 03:37:18;;;;;;;1.70;1.60;;;;;;;18.88;100.00;96429.22;4972970;28;105320;-76
2023/08/14 03:39:46;;;;;;;2.60;1.87;;;;;;;18.97;100.00;96432.78;4988723;28;105222;-76
2023/08/14 03:42:16;;;;;;;1.87;1.40;;;;;;;18.84;100.00;96428.22;4989606;28;102145;-75
2023/08/14 03:44:42;;;;;;;1.20;1.20;;;;;;;18.53;100.00;96426.47;4989450;28;105494;-75
2023/08/14 03:47:09;;;;;;;1.40;1.30;;;;;;;18.41;100.00;96428.81;4972281;28;105942;-75
2023/08/14 03:49:36;;;;;;;1.27;1.27;;;;;;;18.31;100.00;96442.47;4972799;28;101969;-74
2023/08/14 03:52:03;;;;;;;1.97;1.23;;;;;;;18.14;100.00;96440.34;4972633;28;105406;-74
2023/08/14 03:54:30;;;;;;;1.53;1.20;;;;;;;18.16;100.00;96453.50;4972074;28;104192;-74
2023/08/14 03:56:57;;;;;;;1.57;1.47;;;;;;;18.17;100.00;96455.91;4992631;28;102073;-74
2023/08/14 03:59:25;;;;;;;1.40;1.30;;;;;;;18.18;100.00;96462.06;4972378;28;105618;-77
2023/08/14 04:01:52;;;;;;;1.57;1.47;;;;;;;18.17;100.00;96465.84;4971585;28;101986;-74
2023/08/14 04:04:19;;;;;;;1.80;1.70;;;;;;;18.49;100.00;96474.75;4972279;28;105051;-74
2023/08/14 04:06:47;;;;;;;1.47;1.47;;;;;;;18.36;100.00;96469.34;4971925;28;105111;-74
2023/08/14 04:09:14;;;;;;;2.40;1.60;;;;;;;18.30;100.00;96471.28;4972572;28;101972;-74
2023/08/14 04:11:41;;;;;;;1.57;1.47;;;;;;;18.35;100.00;96467.72;4990288;28;103088;-74
2023/08/14 04:14:08;;;;;;;2.43;2.17;;;;;;;18.66;100.00;96479.53;4971948;28;104462;-78
2023/08/14 04:16:43;;;;;;;2.70;1.93;;;;;;;18.61;100.00;96474.22;4972213;28;102416;-80
2023/08/14 04:19:13;;;;;;;1.37;1.30;;;;;;;18.32;100.00;96477.19;4992879;28;102959;-75
2023/08/14 04:21:40;;;;;;;1.83;1.73;;;;;;;18.69;100.00;96477.03;4990219;28;101932;-72
2023/08/14 04:24:08;;;;;;;2.67;2.13;;;;;;;18.83;100.00;96479.72;4972317;28;106005;-74
2023/08/14 04:26:36;;;;;;;2.50;2.17;;;;;;;18.95;100.00;96488.09;4971341;28;105232;-74
2023/08/14 04:29:06;;;;;;;3.60;2.60;;;;;;;19.05;100.00;96493.28;4972282;28;101913;-74
2023/08/14 04:31:33;;;;;;;4.03;2.30;;;;;;;19.15;100.00;96498.47;4972046;28;105460;-74
2023/08/14 04:34:02;;;;;;;2.93;2.47;;;;;;;19.13;100.00;96511.47;4971326;28;105397;-74
2023/08/14 04:36:31;;;;;;;2.10;2.00;;;;;;;19.16;100.00;96517.03;4972218;28;102273;-73
2023/08/14 04:38:58;;;;;;;2.63;2.43;;;;;;;19.42;100.00;96520.84;4972184;28;105009;-74
2023/08/14 04:41:27;;;;;;;3.53;2.50;;;;;;;19.55;100.00;96524.59;4991407;28;105427;-74
2023/08/14 04:43:55;;;;;;;3.50;2.73;;;;;;;19.66;100.00;96515.16;4972174;28;105060;-82
2023/08/14 04:46:31;;;;;;;5.07;2.43;;;;;;;19.76;100.00;96515.75;4971707;28;104593;-83
2023/08/14 04:48:59;;;;;;;3.50;2.57;;;;;;;19.78;100.00;96512.75;4972176;28;102064;-82
2023/08/14 04:51:28;;;;;;;3.43;2.83;;;;;;;20.00;100.00;96513.56;4972144;28;104515;-82
2023/08/14 04:53:57;;;;;;;2.80;2.50;;;;;;;20.10;100.00;96512.56;4971724;28;105430;-82
2023/08/14 04:56:25;;;;;;;2.40;2.30;;;;;;;20.25;100.00;96517.56;4971918;28;102267;-82
2023/08/14 04:58:52;;;;;;;3.00;2.30;;;;;;;20.31;100.00;96516.34;4989894;28;103144;-82
2023/08/14 05:01:21;;;;;;;2.50;2.30;;;;;;;20.27;100.00;96512.66;4971247;28;105531;-82
2023/08/14 05:03:52;;;;;;;1.80;1.70;;;;;;;20.15;100.00;96509.72;4975148;28;101878;-75
2023/08/14 05:06:19;;;;;;;3.10;2.13;;;;;;;20.22;100.00;96504.69;4971182;28;105636;-76
2023/08/14 05:08:47;;;;;;;2.40;2.17;;;;;;;20.27;100.00;96518.84;4971739;28;101848;-76
2023/08/14 05:11:14;;;;;;;1.93;1.83;;;;;;;20.30;100.00;96504.75;4971592;28;105475;-76
2023/08/14 05:13:44;;;;;;;2.40;2.23;;;;;;;20.33;100.00;96509.50;4973564;28;105226;-78
2023/08/14 05:16:11;;;;;;;2.30;2.10;;;;;;;20.37;100.00;96509.69;4991451;28;102060;-78
2023/08/14 05:18:39;;;;;;;3.47;2.00;;;;;;;20.36;100.00;96508.91;4975046;28;105430;-78
2023/08/14 05:21:06;;;;;;;2.17;1.93;;;;;;;20.35;100.00;96512.72;4974367;28;105676;-77
2023/08/14 05:23:33;;;;;;;2.00;1.90;;;;;;;20.25;100.00;96512.97;4975124;28;102023;-75
2023/08/14 05:26:01;;;;;;;3.03;1.70;;;;;;;20.18;100.00;96517.22;4963933;28;105756;-75
2023/08/14 05:28:28;;;;;;;1.90;1.80;;;;;;;20.19;100.00;96513.41;4962151;28;101923;-75
2023/08/14 05:30:55;;;;;;;1.80;1.70;;;;;;;20.26;100.00;96506.47;4956032;28;105364;-74
2023/08/14 05:33:22;;;;;;;1.70;1.60;;;;;;;20.15;100.00;96504.31;4955469;28;105718;-70
2023/08/14 05:35:49;;;;;;;1.83;1.73;;;;;;;20.19;100.00;96500.72;4956058;28;102115;-71
2023/08/14 05:38:16;;;;;;;2.20;1.80;;;;;;;20.21;100.00;96501.19;4956008;28;105201;-71
2023/08/14 05:40:43;;;;;;;2.17;2.07;;;;;;;20.19;100.00;96486.41;4973087;28;102786;-71
2023/08/14 05:43:13;;;;;;;1.50;1.40;;;;;;;20.20;100.00;96488.78;4955932;28;101917;-76
2023/08/14 05:45:44;;;;;;;1.80;1.70;;;;;;;20.20;100.00;96491.50;4958468;28;105107;-76
2023/08/14 05:48:12;;;;;;;2.33;1.70;;;;;;;20.09;100.00;96494.75;4956112;28;102196;-73
2023/08/14 05:50:39;;;;;;;3.57;1.53;;;;;;;19.98;100.00;96491.47;4956011;28;105699;-85
2023/08/14 05:53:07;;;;;;;1.80;1.60;;;;;;;20.01;100.00;96500.88;4955258;28;105176;-74
2023/08/14 05:55:36;;;;;;;1.90;1.80;;;;;;;20.19;100.00;96491.78;4956124;28;102015;-76
2023/08/14 05:58:04;;;;;;;1.60;1.43;;;;;;;20.42;100.00;96479.84;4978593;28;102658;-76
2023/08/14 06:00:34;;;;;;;3.80;2.00;;;;;;;20.68;100.00;96478.06;4979996;28;105189;-76
2023/08/14 06:03:01;;;;;;;2.80;1.60;;;;;;;20.75;100.00;96473.00;4964362;28;101999;-75
2023/08/14 06:05:28;;;;;;;1.93;1.83;;;;;;;20.84;100.00;96469.25;4965520;28;105265;-75
2023/08/14 06:07:56;;;;;;;4.73;1.70;;;;;;;21.04;100.00;96486.84;4963283;28;105610;-72
2023/08/14 06:10:23;;;;;;;3.27;1.80;;;;;;;21.21;100.00;96487.66;4971733;28;105019;-71
2023/08/14 06:12:51;;;;;;;3.37;2.10;;;;;;;21.50;100.00;96484.38;4972706;28;105781;-70
2023/08/14 06:15:19;;;;;;;2.93;1.83;;;;;;;21.56;100.00;96488.50;4973623;28;103149;-71
2023/08/14 06:17:48;;;;;;;2.80;1.70;;;;;;;21.79;100.00;96481.88;4975093;28;105377;-71
2023/08/14 06:20:15;;;;;;;1.73;1.63;;;;;;;21.83;100.00;96475.50;4974093;28;105204;-71
2023/08/14 06:22:44;;;;;;;2.93;1.60;;;;;;;22.10;100.00;96466.22;4974963;28;101953;-71
2023/08/14 06:25:12;;;;;;;1.83;1.73;;;;;;;22.18;100.00;96479.75;4973840;28;105309;-71
2023/08/14 06:27:40;;;;;;;2.10;1.63;;;;;;;22.19;100.00;96473.22;4973964;28;105827;-71
2023/08/14 06:30:08;;;;;;;1.83;1.20;;;;;;;22.11;100.00;96470.53;4978120;28;101989;-71
2023/08/14 06:32:36;;;;;;;3.23;1.37;;;;;;;21.98;100.00;96474.22;4990476;28;105700;-71
2023/08/14 06:35:06;;;;;;;1.60;1.50;;;;;;;22.01;100.00;96474.38;4974731;28;101997;-71
2023/08/14 06:37:33;;;;;;;2.77;1.53;;;;;;;21.94;100.00;96481.38;4974641;28;105396;-71
2023/08/14 06:40:00;;;;;;;2.13;1.37;;;;;;;21.95;100.00;96480.25;4983563;28;102060;-71
2023/08/14 06:42:27;;;;;;;2.00;1.40;;;;;;;21.90;100.00;96483.16;4971297;28;102055;-71
2023/08/14 06:44:54;;;;;;;1.63;1.33;;;;;;;21.80;100.00;96480.75;4980265;28;105237;-71
2023/08/14 06:47:21;;;;;;;1.47;1.37;;;;;;;21.91;100.00;96479.31;4970432;28;106036;-71
2023/08/14 06:53:45;;;;;;;2.23;1.40;;;;;;;21.92;100.00;96475.50;4989881;28;102414;-72
2023/08/14 06:56:12;;;;;;;1.40;1.30;;;;;;;21.75;100.00;96470.09;4974336;28;102229;-74
2023/08/14 06:58:38;;;;;;;2.77;1.40;;;;;;;21.87;100.00;96475.66;4992313;28;102621;-74
2023/08/14 07:01:08;;;;;;;2.73;1.40;;;;;;;21.94;100.00;96459.72;4973672;28;105505;-73
2023/08/14 07:03:38;;;;;;;1.40;1.30;;;;;;;22.05;100.00;96475.31;4974332;28;102071;-75
2023/08/14 07:06:11;;;;;;;1.97;1.37;;;;;;;22.08;100.00;96479.31;4974196;28;104367;-74
2023/08/14 07:08:42;;;;;;;1.50;1.40;;;;;;;22.38;100.00;96483.69;4973678;28;105630;-76
2023/08/14 07:11:16;;;;;;;1.60;1.50;;;;;;;22.34;100.00;96482.78;4971493;28;102414;-73
2023/08/14 07:13:53;;;;;;;1.27;1.20;;;;;;;22.37;100.00;96487.53;4974801;28;105180;-74
2023/08/14 07:16:20;;;;;;;2.70;1.43;;;;;;;22.77;100.00;96491.59;4964788;28;101945;-75
2023/08/14 07:18:53;;;;;;;1.73;1.50;;;;;;;22.70;100.00;96485.88;4973755;28;105051;-73
2023/08/14 07:21:22;;;;;;;1.90;1.53;;;;;;;22.80;100.00;96486.31;4972818;28;105222;-76
2023/08/14 07:23:58;;;;;;;2.23;1.40;;;;;;;22.79;100.00;96484.75;4973619;28;101980;-75
2023/08/14 07:26:25;;;;;;;1.80;1.40;;;;;;;23.26;100.00;96490.94;4972645;28;105172;-75
2023/08/14 07:28:52;;;;;;;2.13;1.40;;;;;;;23.45;100.00;96483.13;4990768;28;103089;-75
2023/08/14 07:31:19;;;;;;;1.57;1.50;;;;;;;23.71;100.00;96479.09;4972702;28;102266;-74
2023/08/14 07:33:46;;;;;;;1.93;1.40;;;;;;;23.71;100.00;96483.75;4986106;28;105588;-75
2023/08/14 07:36:13;;;;;;;1.33;1.30;;;;;;;23.97;100.00;96476.22;4976122;28;105698;-75
2023/08/14 07:38:40;;;;;;;1.77;1.30;;;;;;;24.20;100.00;96469.28;4972962;28;104311;-74
2023/08/14 07:41:10;;;;;;;1.50;1.40;;;;;;;24.14;100.00;96468.69;4990239;28;104134;-74
2023/08/14 07:43:36;;;;;;;1.57;1.47;;;;;;;23.95;100.00;96464.88;4991337;28;102098;-73
2023/08/14 07:46:03;;;;;;;1.30;1.20;;;;;;;24.38;100.00;96467.97;4990201;28;105550;-73
2023/08/14 07:48:30;;;;;;;1.63;1.50;;;;;;;24.55;100.00;96465.88;4989783;28;105377;-73
2023/08/14 07:50:57;;;;;;;3.70;1.60;;;;;;;24.45;100.00;96466.31;4989660;28;101934;-73
2023/08/14 07:53:24;;;;;;;1.60;1.50;;;;;;;24.13;100.00;96471.75;4976331;28;104829;-75
2023/08/14 07:55:51;;;;;;;1.57;1.47;;;;;;;24.25;100.00;96472.56;4952955;28;105108;-76
2023/08/14 07:58:20;;;;;;;2.03;1.60;;;;;;;24.43;100.00;96465.03;4957040;28;103208;-76
2023/08/14 08:00:47;;;;;;;3.03;1.70;;;;;;;24.47;100.00;96466.75;4977086;28;102806;-76
2023/08/14 08:03:14;;;;;;;1.60;1.50;;;;;;;24.70;100.00;96459.00;4972942;28;102153;-75
2023/08/14 08:05:42;;;;;;;2.73;1.40;;;;;;;24.91;100.00;96457.00;4973043;28;105289;-75
2023/08/14 08:08:09;;;;;;;1.60;1.50;;;;;;;24.86;100.00;96459.94;4972115;28;105488;-76
2023/08/14 08:10:36;;;;;;;1.50;1.40;;;;;;;24.76;100.00;96454.94;4972770;28;102033;-76
2023/08/14 08:13:03;;;;;;;1.60;1.50;;;;;;;24.86;100.00;96466.19;4990889;28;102862;-75
2023/08/14 08:15:32;;;;;;;1.63;1.40;;;;;;;24.89;100.00;96461.97;4988859;28;104419;-74
2023/08/14 08:18:02;;;;;;;2.40;1.57;;;;;;;25.21;100.00;96458.34;4990780;28;102086;-74
2023/08/14 08:20:30;;;;;;;1.73;1.63;;;;;;;25.42;100.00;96456.31;4975987;28;104892;-75
2023/08/14 08:22:57;;;;;;;1.50;1.40;;;;;;;25.56;100.00;96457.53;4972741;28;101898;-75
2023/08/14 08:25:23;;;;;;;1.63;1.50;;;;;;;25.43;100.00;96463.34;4972015;28;105140;-74
2023/08/14 08:27:51;;;;;;;1.90;1.53;;;;;;;25.76;100.00;96459.28;4972055;28;105919;-74
2023/08/14 08:30:17;;;;;;;2.87;1.60;;;;;;;25.79;100.00;96455.91;4990271;28;101957;-74
2023/08/14 08:32:46;;;;;;;1.30;1.30;;;;;;;25.75;100.00;96465.88;4956200;28;106108;-74
2023/08/14 08:35:14;;;;;;;2.50;1.93;;;;;;;25.81;100.00;96447.34;4971553;28;105396;-73
2023/08/14 08:37:41;;;;;;;1.50;1.40;;;;;;;25.88;100.00;96455.75;4989067;28;102070;-74
2023/08/14 08:40:09;;;;;;;1.37;1.37;;;;;;;26.42;100.00;96462.34;4988807;28;105200;-75
2023/08/14 08:42:40;;;;;;;1.63;1.53;;;;;;;26.51;100.00;96461.06;4975198;28;102827;-74
2023/08/14 08:45:12;;;;;;;2.63;1.80;;;;;;;26.89;100.00;96453.09;4972423;28;104862;-75
2023/08/14 08:47:41;;;;;;;2.13;1.70;;;;;;;26.76;100.00;96453.53;4971028;28;105657;-73
2023/08/14 08:50:11;;;;;;;2.00;1.70;;;;;;;26.55;100.00;96445.59;4972435;28;101882;-73
2023/08/14 08:52:40;;;;;;;2.00;1.80;;;;;;;26.56;100.00;96452.66;4988889;28;104308;-73
2023/08/14 08:55:09;;;;;;;2.90;1.90;;;;;;;26.72;100.00;96441.72;4971696;28;106012;-73
2023/08/14 08:57:36;;;;;;;1.90;1.80;;;;;;;26.73;100.00;96451.50;4972307;28;102265;-73
2023/08/14 09:00:04;;;;;;;1.97;1.80;;;;;;;26.59;100.00;96448.41;4971344;28;105001;-73
2023/08/14 09:02:31;;;;;;;2.00;1.90;;;;;;;26.49;100.00;96436.03;4970307;28;105273;-73
2023/08/14 09:04:58;;;;;;;1.80;1.70;;;;;;;26.74;100.00;96439.44;4974143;28;102242;-73
2023/08/14 09:07:26;;;;;;;1.60;1.50;;;;;;;27.22;100.00;96441.81;4970131;28;105661;-73
2023/08/14 09:09:53;;;;;;;2.10;1.77;;;;;;;27.15;100.00;96444.34;4970480;28;102377;-73
2023/08/14 09:12:20;;;;;;;2.20;1.80;;;;;;;27.36;100.00;96437.47;4954320;28;106690;-73
2023/08/14 09:15:02;;;;;;;1.77;1.60;;;;;;;27.41;100.00;96439.16;4986582;28;105577;-73
2023/08/14 09:17:29;;;;;;;1.90;1.70;;;;;;;27.56;100.00;96439.09;4971245;28;101929;-73
2023/08/14 09:19:56;;;;;;;1.73;1.63;;;;;;;27.90;100.00;96445.72;4987943;28;105350;-73
2023/08/14 09:22:25;;;;;;;2.27;1.90;;;;;;;28.23;100.00;96437.78;4988034;28;105121;-73
2023/08/14 09:24:54;;;;;;;1.97;1.87;;;;;;;28.05;100.00;96425.69;4974574;28;102208;-73
2023/08/14 09:27:22;;;;;;;2.70;2.10;;;;;;;28.26;100.00;96426.09;4970724;28;105516;-75
2023/08/14 09:29:52;;;;;;;2.43;1.87;;;;;;;28.16;100.00;96421.25;4971370;28;102236;-72
2023/08/14 09:32:22;;;;;;;2.43;1.67;;;;;;;28.65;100.00;96422.16;4971054;28;105460;-73
2023/08/14 09:34:49;;;;;;;2.38;1.85;;;;;;;28.36;100.00;96418.09;4970538;28;105879;-73
2023/08/14 09:37:20;;;;;;;2.03;1.83;;;;;;;28.05;100.00;96414.75;4988984;28;101896;-73
2023/08/14 09:39:47;;;;;;;1.80;1.60;;;;;;;28.27;100.00;96414.03;4987585;28;105218;-73
2023/08/14 09:42:16;;;;;;;2.30;2.10;;;;;;;28.56;100.00;96414.19;4986823;28;105391;-73
2023/08/14 09:44:44;;;;;;;1.92;1.80;;;;;;;28.67;100.00;96412.41;4971068;28;102055;-73
2023/08/14 09:47:14;;;;;;;1.83;1.60;;;;;;;28.83;100.00;96413.09;4973669;28;105212;-73
2023/08/14 09:49:43;;;;;;;2.55;1.95;;;;;;;29.34;100.00;96405.28;4971200;28;101918;-73
2023/08/14 09:52:11;;;;;;;2.20;1.70;;;;;;;29.32;100.00;96394.69;4970766;28;105340;-73
2023/08/14 09:54:38;;;;;;;2.08;1.50;;;;;;;29.38;100.00;96397.94;4987909;28;102788;-73
2023/08/14 09:57:05;;;;;;;2.17;1.80;;;;;;;29.62;100.00;96397.50;4954291;28;102040;-73
2023/08/14 09:59:35;;;;;;;2.05;1.77;;;;;;;29.95;100.00;96386.53;4991112;28;102597;-73
2023/08/14 10:02:04;;;;;;;2.45;1.70;;;;;;;30.24;100.00;96388.50;4990023;28;105434;-73
2023/08/14 10:04:32;;;;;;;1.73;1.63;;;;;;;29.78;100.00;96387.13;4974401;28;102173;-73
2023/08/14 10:07:00;;;;;;;2.25;1.80;;;;;;;29.71;100.00;96387.03;4990491;28;105512;-73
2023/08/14 10:09:30;;;;;;;2.03;1.70;;;;;;;29.87;100.00;96376.66;4993470;28;105766;-73
2023/08/14 10:12:01;;;;;;;2.10;1.45;;;;;;;30.06;100.00;96379.22;4990587;28;103935;-73
2023/08/14 10:14:30;;;;;;;1.98;1.88;;;;;;;30.10;100.00;96374.56;4973699;28;105833;-73
2023/08/14 10:17:02;;;;;;;1.80;1.70;;;;;;;30.31;100.00;96372.88;4973868;28;102036;-73
2023/08/14 10:19:30;;;;;;;1.95;1.85;;;;;;;30.57;100.00;96369.97;4991774;28;102868;-73
2023/08/14 10:21:58;;;;;;;2.20;2.00;;;;;;;30.33;100.00;96381.53;4989673;28;103922;-73
2023/08/14 10:24:27;;;;;;;2.10;2.00;;;;;;;30.51;100.00;96376.22;4973842;28;102242;-73
2023/08/14 10:26:56;;;;;;;2.28;2.10;;;;;;;30.08;100.00;96377.69;4973627;28;105584;-73
2023/08/14 10:29:23;;;;;;;1.80;1.70;;;;;;;29.50;100.00;96370.28;4989935;28;105346;-73
2023/08/14 10:31:50;;;;;;;2.17;1.98;;;;;;;30.33;100.00;96365.06;4976814;28;102048;-73
2023/08/14 10:34:19;;;;;;;1.77;1.63;;;;;;;30.67;100.00;96374.03;4989875;28;105094;-73
2023/08/14 10:36:50;;;;;;;2.17;1.90;;;;;;;30.97;100.00;96371.91;4973662;28;101988;-73
2023/08/14 10:39:17;;;;;;;2.00;1.52;;;;;;;31.11;100.00;96367.31;4990346;28;105203;-73
2023/08/14 10:41:44;;;;;;;1.70;1.60;;;;;;;31.45;100.00;96363.22;4973160;28;105478;-73
2023/08/14 10:44:12;;;;;;;2.63;1.73;;;;;;;31.11;100.00;96361.81;4989748;28;102076;-73
2023/08/14 10:46:41;;;;;;;2.08;1.67;;;;;;;31.48;100.00;96351.47;4973441;28;105103;-73
2023/08/14 10:49:11;;;;;;;2.30;1.70;;;;;;;31.70;100.00;96355.09;4972679;28;105348;-73
2023/08/14 10:51:42;;;;;;;1.10;1.10;;;;;;;31.69;100.00;96356.25;4973302;28;101906;-73
2023/08/14 10:54:10;;;;;;;1.40;1.30;;;;;;;31.78;100.00;96351.25;4992699;28;105497;-74
2023/08/14 10:56:45;;;;;;;1.77;1.67;;;;;;;31.70;100.00;96360.59;4991322;28;102149;-73
2023/08/14 10:59:23;;;;;;;1.50;1.40;;;;;;;31.97;100.00;96348.94;4973566;28;105719;-73
2023/08/14 11:01:51;;;;;;;1.52;1.40;;;;;;;31.94;100.00;96343.44;4990481;28;102737;-73
2023/08/14 11:04:18;;;;;;;1.42;1.33;;;;;;;32.05;100.00;96345.06;4973279;28;102343;-73
2023/08/14 11:07:11;;;;;;;1.45;1.45;;;;;;;32.19;100.00;96338.75;4989433;28;105409;-73
2023/08/14 11:09:39;;;;;;;1.55;1.45;;;;;;;32.44;100.00;96334.13;4967679;28;105335;-73
2023/08/14 11:12:08;;;;;;;1.55;1.45;;;;;;;32.61;100.00;96328.63;4990369;28;102048;-74
2023/08/14 11:14:37;;;;;;;1.30;1.30;;;;;;;32.59;100.00;96330.22;4956729;28;104727;-73
2023/08/14 11:17:04;;;;;;;1.77;1.50;;;;;;;32.70;100.00;96328.25;4975736;28;105166;-73
2023/08/14 11:19:33;;;;;;;1.48;1.38;;;;;;;32.61;100.00;96328.63;4972818;28;105557;-74
2023/08/14 11:22:00;;;;;;;2.50;1.33;;;;;;;33.10;100.00;96327.84;4972168;28;105643;-74
2023/08/14 11:24:29;;;;;;;1.38;1.27;;;;;;;33.01;94.99;96324.72;4973270;28;102037;-73
2023/08/14 11:26:58;;;;;;;1.40;1.30;;;;;;;32.81;100.00;96318.81;4972535;28;105229;-73